Abernant, Alabama
Current Conditions -  °F | °C
As of 1:53 PM on Wednesday 26 Nov 2014 (Local Time) from KTCL Reporting Station
Clear Clear  
Wind Chill: 59°   Ceiling: Unl
Heat Index: 59°   Visibility: 10mi
Dew Point: 27°   Wind: 13mph
Humidity: 29%   Direction: 190°S
Pressure: 30.1"   Gusts: NA
Location:  33.29°N, 87.2°W
Report Text: KTCL 261953Z 19011KT 10SM CLR 15/M03 A3010 RMK AO2 SLP191 T01501028
Loading
Personal Weather Stations






























Interactive Weather Map New forecast layout! Learn more

10-Day Weather Forecast

Advertisements
Track Severe Weather on mobile